Time;durP1;ratioP1;P1;durP2;ratioP2;P2;SDS_P1;SDS_P2;PMS_P1;PMS_P2;Temp;Humidity;BMP_temperature;BMP_pressure;BME280_temperature;BME280_humidity;BME280_pressure;Samples;Min_cycle;Max_cycle;Signal;HPM_P1;HPM_P2
2022/11/22 00:01:18;;;;;;;0.10;0.10;;;3.40;99.90;2.10;95125.00;;;;5032467;28;20249;-73
2022/11/22 00:03:46;;;;;;;0.10;0.10;;;3.40;99.90;2.20;95122.00;;;;5032370;28;20218;-73
2022/11/22 00:06:14;;;;;;;0.10;0.10;;;3.40;99.90;2.10;95127.00;;;;5032469;28;20199;-74
2022/11/22 00:08:42;;;;;;;0.10;0.10;;;3.40;99.90;2.10;95120.00;;;;5032142;28;20666;-74
2022/11/22 00:11:10;;;;;;;0.10;0.10;;;3.50;99.90;2.20;95120.00;;;;5032311;28;20187;-72
2022/11/22 00:13:40;;;;;;;0.10;0.10;;;3.50;99.90;2.10;95111.00;;;;5032304;28;20211;-73
2022/11/22 00:16:09;;;;;;;0.03;0.03;;;3.40;99.90;2.10;95114.00;;;;5032255;28;20191;-74
2022/11/22 00:18:37;;;;;;;0.10;0.10;;;3.50;99.90;2.10;95115.00;;;;5032084;28;20662;-74
2022/11/22 00:21:07;;;;;;;0.10;0.10;;;3.40;99.90;2.10;95111.00;;;;5032185;28;20219;-74
2022/11/22 00:23:35;;;;;;;0.10;0.10;;;3.40;99.90;2.10;95125.00;;;;5032081;28;20218;-74
2022/11/22 00:26:03;;;;;;;0.10;0.10;;;3.40;99.90;2.20;95125.00;;;;5031539;28;20179;-72
2022/11/22 00:28:31;;;;;;;0.03;0.03;;;3.40;99.90;2.20;95119.00;;;;5031521;28;20199;-74
2022/11/22 00:31:01;;;;;;;0.10;0.10;;;3.50;99.90;2.20;95119.00;;;;5032079;28;20245;-74
2022/11/22 00:33:29;;;;;;;0.10;0.10;;;3.50;99.90;2.20;95112.00;;;;5031804;28;20276;-72
2022/11/22 00:35:57;;;;;;;0.10;0.10;;;3.50;99.90;2.20;95124.00;;;;5031944;28;20191;-72
2022/11/22 00:38:25;;;;;;;0.10;0.10;;;3.50;99.90;2.20;95137.00;;;;5031686;28;20249;-74
2022/11/22 00:40:53;;;;;;;0.10;0.10;;;3.50;99.90;2.20;95128.00;;;;5031914;28;20264;-72
2022/11/22 00:43:21;;;;;;;0.10;0.10;;;3.40;99.90;2.20;95147.00;;;;5031667;28;20211;-72
2022/11/22 00:45:49;;;;;;;0.10;0.10;;;3.50;99.90;2.20;95143.00;;;;5031827;28;20662;-73
2022/11/22 00:48:19;;;;;;;0.08;0.08;;;3.50;99.90;2.20;95129.00;;;;5031676;28;20187;-72
2022/11/22 00:50:49;;;;;;;0.10;0.10;;;3.50;99.90;2.20;95123.00;;;;5031969;28;20677;-73
2022/11/22 00:53:17;;;;;;;0.03;0.03;;;3.50;99.90;2.20;95130.00;;;;5032244;28;20203;-72
2022/11/22 00:55:45;;;;;;;0.10;0.10;;;3.50;99.90;2.20;95131.00;;;;5031619;28;20191;-73
2022/11/22 00:58:13;;;;;;;0.05;0.05;;;3.50;99.90;2.10;95116.00;;;;5032414;28;20244;-73
2022/11/22 01:00:42;;;;;;;0.10;0.10;;;3.50;99.90;2.20;95125.00;;;;5032217;28;20227;-73
2022/11/22 01:03:12;;;;;;;0.10;0.10;;;3.50;99.90;2.20;95126.00;;;;5032791;28;20290;-73
2022/11/22 01:05:42;;;;;;;0.10;0.10;;;3.50;99.90;2.20;95122.00;;;;5037270;28;20599;-76
2022/11/22 01:08:10;;;;;;;0.10;0.10;;;3.50;99.90;2.20;95121.00;;;;5032062;28;20187;-76
2022/11/22 01:10:38;;;;;;;0.10;0.10;;;3.50;99.90;2.20;95134.00;;;;5031539;28;20199;-75
2022/11/22 01:13:06;;;;;;;0.10;0.10;;;3.40;99.90;2.10;95121.00;;;;5031350;28;20265;-75
2022/11/22 01:15:36;;;;;;;0.10;0.10;;;3.40;99.90;2.10;95131.00;;;;5031611;28;20191;-75
2022/11/22 01:18:04;;;;;;;0.10;0.10;;;3.40;99.90;2.10;95117.00;;;;5031314;28;20187;-75
2022/11/22 01:20:32;;;;;;;0.10;0.10;;;3.40;99.90;2.10;95136.00;;;;5031286;28;20207;-75
2022/11/22 01:23:02;;;;;;;0.10;0.10;;;3.40;99.90;2.10;95121.00;;;;5033313;28;20215;-75
2022/11/22 01:25:30;;;;;;;0.10;0.10;;;3.40;99.90;2.10;95142.00;;;;5039880;28;20218;-73
2022/11/22 01:27:58;;;;;;;0.10;0.10;;;3.40;99.90;2.00;95129.00;;;;5036341;28;20187;-72
2022/11/22 01:30:26;;;;;;;0.10;0.10;;;3.40;99.90;2.00;95128.00;;;;5031617;28;20217;-72
2022/11/22 01:32:54;;;;;;;0.00;0.00;;;3.30;99.90;2.00;95112.00;;;;5031634;28;20257;-72
2022/11/22 01:35:22;;;;;;;0.10;0.10;;;3.30;99.90;2.00;95096.00;;;;5031446;28;20199;-72
2022/11/22 01:37:50;;;;;;;0.00;0.00;;;3.30;99.90;2.00;95106.00;;;;5031356;28;20253;-72
2022/11/22 01:40:20;;;;;;;0.10;0.10;;;3.30;99.90;2.00;95096.00;;;;5031427;28;20680;-72
2022/11/22 01:42:52;;;;;;;0.10;0.10;;;3.30;99.90;1.80;95085.00;;;;5031066;28;20207;-74
2022/11/22 01:45:46;;;;;;;0.10;0.10;;;3.30;99.90;2.00;95098.00;;;;5031171;28;20199;-74
2022/11/22 01:48:42;;;;;;;0.10;0.10;;;3.30;99.90;2.00;95080.00;;;;5031116;28;20737;-74
2022/11/22 01:51:20;;;;;;;0.10;0.10;;;3.30;99.90;2.00;95077.00;;;;5030847;28;20192;-74
2022/11/22 01:53:49;;;;;;;0.10;0.10;;;3.30;99.90;2.00;95072.00;;;;5031324;28;20238;-74
2022/11/22 01:56:21;;;;;;;0.10;0.10;;;3.30;99.90;2.00;95054.00;;;;5031000;28;20195;-74
2022/11/22 01:58:56;;;;;;;0.10;0.10;;;3.30;99.90;2.00;95056.00;;;;5030886;28;20187;-74
2022/11/22 02:01:24;;;;;;;0.10;0.10;;;3.30;99.90;2.00;95070.00;;;;5031020;28;20859;-74
2022/11/22 02:03:58;;;;;;;0.10;0.10;;;3.30;99.90;2.00;95054.00;;;;5030893;28;20215;-74
2022/11/22 02:06:37;;;;;;;0.10;0.10;;;3.30;99.90;2.00;95052.00;;;;5031762;28;20615;-74
2022/11/22 02:09:11;;;;;;;0.10;0.10;;;3.30;99.90;2.00;95049.00;;;;5034248;28;20195;-74
2022/11/22 02:11:48;;;;;;;0.10;0.10;;;3.30;99.90;2.00;95063.00;;;;5034568;28;20221;-74
2022/11/22 02:14:20;;;;;;;0.10;0.10;;;3.30;99.90;2.00;95063.00;;;;5034281;28;20610;-74
2022/11/22 02:16:49;;;;;;;0.10;0.10;;;3.30;99.90;2.00;95074.00;;;;5034427;28;20241;-74
2022/11/22 02:19:25;;;;;;;0.10;0.10;;;3.30;99.90;2.00;95072.00;;;;5033977;28;20211;-74
2022/11/22 02:22:00;;;;;;;0.10;0.10;;;3.30;99.90;2.00;95064.00;;;;5034199;28;20250;-74
2022/11/22 02:24:38;;;;;;;0.00;0.00;;;3.30;99.90;2.00;95056.00;;;;5034652;28;20214;-74
2022/11/22 02:27:08;;;;;;;0.00;0.00;;;3.30;99.90;1.70;95069.00;;;;5034702;28;20604;-75
2022/11/22 02:29:37;;;;;;;0.10;0.10;;;3.30;99.90;2.00;95039.00;;;;5034119;28;20195;-75
2022/11/22 02:32:05;;;;;;;0.10;0.10;;;3.30;99.90;2.00;95043.00;;;;5033959;28;20203;-75
2022/11/22 02:34:42;;;;;;;0.10;0.10;;;3.30;99.90;2.00;95021.00;;;;5034087;28;20230;-75
2022/11/22 02:37:14;;;;;;;0.00;0.00;;;3.30;99.90;2.00;95041.00;;;;5033788;28;20191;-75
2022/11/22 02:39:46;;;;;;;0.10;0.10;;;3.30;99.90;2.00;95001.00;;;;5032298;28;20187;-75
2022/11/22 02:42:16;;;;;;;0.10;0.10;;;3.30;99.90;2.10;95022.00;;;;5032563;28;20289;-75
2022/11/22 02:44:44;;;;;;;0.10;0.10;;;3.40;99.90;2.10;95019.00;;;;5033626;28;20330;-75
2022/11/22 02:47:12;;;;;;;0.10;0.10;;;3.40;99.90;2.10;95020.00;;;;5033312;28;20621;-75
2022/11/22 02:49:41;;;;;;;0.10;0.10;;;3.40;99.90;2.10;95002.00;;;;5033565;28;20195;-75
2022/11/22 02:52:09;;;;;;;0.10;0.10;;;3.40;99.90;2.10;94997.00;;;;5033739;28;20195;-75
2022/11/22 02:54:37;;;;;;;0.10;0.10;;;3.40;99.90;2.10;95016.00;;;;5033676;28;20238;-75
2022/11/22 02:57:05;;;;;;;0.10;0.10;;;3.50;99.90;2.20;95029.00;;;;5033514;28;20655;-72
2022/11/22 02:59:35;;;;;;;0.10;0.10;;;3.50;99.90;2.10;95022.00;;;;5033530;28;20199;-72
2022/11/22 03:02:03;;;;;;;0.10;0.10;;;3.40;99.90;2.10;95008.00;;;;5033886;28;20223;-72
2022/11/22 03:04:31;;;;;;;0.10;0.10;;;3.50;99.90;2.20;95006.00;;;;5033613;28;20211;-72
2022/11/22 03:07:00;;;;;;;0.10;0.10;;;3.60;99.90;2.30;95000.00;;;;5034070;28;20249;-72
2022/11/22 03:09:29;;;;;;;0.10;0.10;;;3.60;99.90;2.20;95008.00;;;;5032563;28;20207;-73
2022/11/22 03:11:58;;;;;;;0.10;0.10;;;3.60;99.90;1.90;94999.00;;;;5033590;28;20249;-73
2022/11/22 03:14:26;;;;;;;0.10;0.10;;;3.60;99.90;2.20;94990.00;;;;5033878;28;20237;-73
2022/11/22 03:16:55;;;;;;;0.10;0.10;;;3.50;99.90;2.20;94990.00;;;;5033863;28;20199;-72
2022/11/22 03:19:23;;;;;;;0.10;0.10;;;3.60;99.90;2.20;94996.00;;;;5033377;28;20253;-73
2022/11/22 03:21:52;;;;;;;0.10;0.10;;;3.60;99.90;2.30;94966.00;;;;5033374;28;20694;-72
2022/11/22 03:24:20;;;;;;;0.10;0.10;;;3.60;99.90;2.30;94993.00;;;;5033065;28;20222;-73
2022/11/22 03:26:49;;;;;;;0.10;0.10;;;3.60;99.90;2.30;95001.00;;;;5033188;28;20717;-73
2022/11/22 03:29:18;;;;;;;0.10;0.10;;;3.70;99.90;2.30;94981.00;;;;5032932;28;20563;-73
2022/11/22 03:31:46;;;;;;;0.10;0.10;;;3.70;99.90;2.30;94987.00;;;;5033218;28;20191;-73
2022/11/22 03:34:16;;;;;;;0.10;0.10;;;3.70;99.90;2.30;95001.00;;;;5033129;28;20616;-73
2022/11/22 03:36:45;;;;;;;0.10;0.10;;;3.60;99.90;2.30;94991.00;;;;5033394;28;20199;-73
2022/11/22 03:39:13;;;;;;;0.10;0.10;;;3.70;99.90;2.40;95001.00;;;;5032713;28;20671;-72
2022/11/22 03:41:41;;;;;;;0.00;0.00;;;3.80;99.90;2.50;94989.00;;;;5033093;28;20211;-73
2022/11/22 03:44:09;;;;;;;0.10;0.10;;;3.80;99.90;2.50;94987.00;;;;5032672;28;20630;-73
2022/11/22 03:46:37;;;;;;;0.10;0.10;;;3.80;99.90;2.40;94987.00;;;;5032950;28;20187;-73
2022/11/22 03:49:05;;;;;;;0.10;0.10;;;3.70;99.90;2.40;94985.00;;;;5032880;28;20261;-72
2022/11/22 03:51:35;;;;;;;0.00;0.00;;;3.80;99.90;2.40;94960.00;;;;5033022;28;20195;-72
2022/11/22 03:54:03;;;;;;;0.10;0.10;;;3.80;99.90;2.50;94971.00;;;;5031021;28;20273;-73
2022/11/22 03:56:31;;;;;;;0.03;0.03;;;3.80;99.90;2.30;94968.00;;;;5032681;28;20210;-72
2022/11/22 03:59:00;;;;;;;0.10;0.10;;;3.70;99.90;2.30;94981.00;;;;5032297;28;20553;-73
2022/11/22 04:01:28;;;;;;;0.10;0.10;;;3.70;99.90;2.30;95000.00;;;;5032869;28;20566;-72
2022/11/22 04:03:56;;;;;;;0.10;0.10;;;3.60;99.90;2.20;94996.00;;;;5032935;28;20681;-74
2022/11/22 04:06:24;;;;;;;0.10;0.10;;;3.50;99.90;2.10;94976.00;;;;5032527;28;20593;-72
2022/11/22 04:08:54;;;;;;;0.10;0.10;;;3.40;99.90;2.10;94991.00;;;;5032137;28;20210;-73
2022/11/22 04:11:22;;;;;;;0.10;0.10;;;3.40;99.90;2.10;94979.00;;;;5032458;28;20190;-72
2022/11/22 04:16:36;;;;;;;0.10;0.10;;;3.50;99.90;2.20;94983.00;;;;5032301;28;20199;-72
2022/11/22 04:19:04;;;;;;;0.10;0.10;;;3.50;99.90;2.20;94975.00;;;;5031810;28;20194;-73
2022/11/22 04:21:34;;;;;;;0.10;0.10;;;3.50;99.90;2.20;94983.00;;;;5031927;28;20598;-72
2022/11/22 04:26:53;;;;;;;0.10;0.10;;;3.50;99.90;2.20;94927.00;;;;5032356;28;20199;-76
2022/11/22 04:29:23;;;;;;;0.10;0.10;;;3.50;99.90;2.20;94999.00;;;;5031080;28;20207;-76
2022/11/22 04:34:37;;;;;;;0.10;0.10;;;3.50;99.90;2.20;94979.00;;;;5031875;28;20334;-76
2022/11/22 04:37:06;;;;;;;0.10;0.10;;;3.50;99.90;2.20;95010.00;;;;5032218;28;20187;-76
2022/11/22 04:39:35;;;;;;;0.10;0.10;;;3.60;99.90;2.20;95005.00;;;;5031641;28;20692;-76
2022/11/22 04:44:49;;;;;;;0.10;0.10;;;3.50;99.90;2.20;95038.00;;;;5032052;28;20674;-76
2022/11/22 04:50:01;;;;;;;0.10;0.10;;;3.50;99.90;2.20;95052.00;;;;5032223;28;20190;-76
2022/11/22 04:55:16;;;;;;;0.10;0.10;;;3.50;99.90;2.20;95024.00;;;;5031509;28;20202;-76
2022/11/22 04:57:45;;;;;;;0.03;0.03;;;3.50;99.90;2.10;94963.00;;;;5031348;28;20191;-76
2022/11/22 05:00:14;;;;;;;0.00;0.00;;;3.50;99.90;2.10;95010.00;;;;5031803;28;20195;-76
2022/11/22 05:02:42;;;;;;;0.10;0.10;;;3.50;99.90;2.10;95003.00;;;;5033019;28;20260;-76
2022/11/22 05:05:11;;;;;;;0.10;0.10;;;3.50;99.90;1.70;94085.00;;;;5033625;28;20183;-76
2022/11/22 05:07:39;;;;;;;0.10;0.10;;;3.40;99.90;1.70;94257.00;;;;5032385;28;20229;-76
2022/11/22 05:10:09;;;;;;;0.10;0.10;;;3.40;99.90;1.70;94231.00;;;;5031638;28;20299;-76
2022/11/22 05:12:40;;;;;;;0.10;0.10;;;3.40;99.90;1.70;94183.00;;;;5031674;28;20195;-73
2022/11/22 05:15:10;;;;;;;0.10;0.10;;;3.40;99.90;1.70;94108.00;;;;5031544;28;20558;-73
2022/11/22 05:17:38;;;;;;;0.10;0.10;;;3.40;99.90;1.70;94053.00;;;;5031317;28;20241;-73
2022/11/22 05:20:08;;;;;;;0.10;0.10;;;3.40;99.90;1.60;94050.00;;;;5031971;28;20709;-73
2022/11/22 05:25:22;;;;;;;0.10;0.10;;;3.40;99.90;1.60;94195.00;;;;5031620;28;20187;-73
2022/11/22 05:27:56;;;;;;;0.10;0.10;;;3.40;99.90;1.60;94223.00;;;;5031319;28;20528;-73
2022/11/22 05:30:25;;;;;;;0.10;0.10;;;3.40;99.90;1.60;94194.00;;;;5031425;28;20187;-74
2022/11/22 05:32:54;;;;;;;0.10;0.10;;;3.40;99.90;1.60;94224.00;;;;5031209;28;20706;-73
2022/11/22 05:35:22;;;;;;;0.10;0.10;;;3.40;99.90;1.70;94465.00;;;;5031320;28;20725;-73
2022/11/22 05:37:50;;;;;;;0.10;0.10;;;3.30;99.90;1.60;94160.00;;;;5031467;28;20366;-73
2022/11/22 05:40:19;;;;;;;0.10;0.10;;;3.30;99.90;1.50;94272.00;;;;5030682;28;20202;-73
2022/11/22 05:42:47;;;;;;;0.10;0.10;;;3.30;99.90;1.60;94288.00;;;;5035084;28;20226;-74
2022/11/22 05:45:17;;;;;;;0.10;0.10;;;3.30;99.90;1.60;94344.00;;;;5035292;28;20554;-74
2022/11/22 05:47:45;;;;;;;0.10;0.10;;;3.30;99.90;1.50;94155.00;;;;5035066;28;20262;-74
2022/11/22 05:50:13;;;;;;;0.10;0.10;;;3.30;99.90;1.50;94170.00;;;;5035453;28;20238;-74
2022/11/22 05:52:41;;;;;;;0.10;0.10;;;3.30;99.90;1.60;94126.00;;;;5034953;28;20708;-73
2022/11/22 05:55:09;;;;;;;0.10;0.10;;;3.30;99.90;1.50;94119.00;;;;5035264;28;20533;-75
2022/11/22 05:57:38;;;;;;;0.10;0.10;;;3.30;99.90;1.50;94086.00;;;;5035343;28;20950;-73
2022/11/22 06:00:07;;;;;;;0.10;0.10;;;3.30;99.90;1.60;94248.00;;;;5034947;28;20195;-75
2022/11/22 06:02:40;;;;;;;0.10;0.10;;;3.30;99.90;1.50;94148.00;;;;5037084;28;20211;-73
2022/11/22 06:05:09;;;;;;;0.10;0.10;;;3.30;99.90;1.50;94098.00;;;;5038326;28;20203;-75
2022/11/22 06:07:37;;;;;;;0.10;0.10;;;3.30;99.90;1.50;94123.00;;;;5036699;28;20249;-74
2022/11/22 06:10:06;;;;;;;0.10;0.10;;;3.30;99.90;1.50;93990.00;;;;5035331;28;20624;-74
2022/11/22 06:12:34;;;;;;;0.10;0.10;;;3.30;99.90;1.50;93951.00;;;;5034729;28;20282;-72
2022/11/22 06:15:03;;;;;;;0.10;0.10;;;3.30;99.90;1.60;94324.00;;;;5034503;28;20237;-72
2022/11/22 06:17:31;;;;;;;0.10;0.10;;;3.30;99.90;1.50;94202.00;;;;5034308;28;20195;-75
2022/11/22 06:20:00;;;;;;;0.10;0.10;;;3.30;99.90;2.00;95139.00;;;;5035055;28;20663;-75
2022/11/22 06:22:33;;;;;;;0.10;0.10;;;3.30;99.90;2.00;95114.00;;;;5034338;28;20658;-73
2022/11/22 06:25:02;;;;;;;0.20;0.20;;;3.30;99.90;2.00;95079.00;;;;5034341;28;20618;-74
2022/11/22 06:27:30;;;;;;;0.00;0.00;;;3.30;99.90;2.00;95116.00;;;;5034336;28;20195;-73
2022/11/22 06:29:58;;;;;;;0.10;0.10;;;3.30;99.90;2.00;95079.00;;;;5033708;28;20245;-74
2022/11/22 06:32:26;;;;;;;0.10;0.10;;;3.30;99.90;2.00;95078.00;;;;5034061;28;20710;-74
2022/11/22 06:34:54;;;;;;;0.10;0.10;;;3.30;99.90;2.00;95006.00;;;;5034194;28;20195;-73
2022/11/22 06:37:23;;;;;;;0.10;0.10;;;3.30;99.90;2.00;95071.00;;;;5034522;28;20249;-74
2022/11/22 06:39:52;;;;;;;0.10;0.10;;;3.30;99.90;2.00;95079.00;;;;5034239;28;20191;-72
2022/11/22 06:42:20;;;;;;;0.10;0.10;;;3.30;99.90;2.00;95069.00;;;;5034155;28;20194;-73
2022/11/22 06:44:48;;;;;;;0.10;0.10;;;3.30;99.90;2.00;95072.00;;;;5034296;28;20345;-72
2022/11/22 06:47:17;;;;;;;0.10;0.10;;;3.30;99.90;2.00;95066.00;;;;5034848;28;20195;-73
2022/11/22 06:49:45;;;;;;;0.10;0.10;;;3.30;99.90;2.00;95090.00;;;;5034145;28;20189;-73
2022/11/22 06:52:13;;;;;;;0.10;0.10;;;3.40;99.90;2.10;95105.00;;;;5033213;28;20593;-73
2022/11/22 06:54:43;;;;;;;0.10;0.10;;;3.40;99.90;2.00;95090.00;;;;5034286;28;20217;-73
2022/11/22 06:57:14;;;;;;;0.10;0.10;;;3.40;99.90;2.00;95088.00;;;;5033857;28;20191;-74
2022/11/22 06:59:42;;;;;;;0.10;0.10;;;3.40;99.90;2.10;95114.00;;;;5034491;28;20199;-73
2022/11/22 07:02:12;;;;;;;0.10;0.10;;;3.40;99.90;2.10;95109.00;;;;5034592;28;20183;-73
2022/11/22 07:04:40;;;;;;;0.10;0.10;;;3.40;99.90;2.10;95089.00;;;;5040848;28;20223;-73
2022/11/22 07:07:28;;;;;;;0.10;0.10;;;3.40;99.90;2.10;95067.00;;;;5043305;28;20194;-73
2022/11/22 07:09:58;;;;;;;0.10;0.10;;;3.50;99.90;2.20;95101.00;;;;5040381;28;20191;-73
2022/11/22 07:12:26;;;;;;;0.10;0.10;;;3.50;99.90;2.20;95097.00;;;;5039687;28;20187;-72
2022/11/22 07:14:54;;;;;;;0.03;0.03;;;3.50;99.90;2.10;95061.00;;;;5038416;28;20261;-73
2022/11/22 07:17:22;;;;;;;0.10;0.10;;;3.50;99.90;2.20;95104.00;;;;5039461;28;20642;-73
2022/11/22 07:19:50;;;;;;;0.10;0.10;;;3.50;99.90;2.20;95106.00;;;;5035530;28;20666;-73
2022/11/22 07:22:18;;;;;;;0.10;0.10;;;3.50;99.90;2.20;95081.00;;;;5033232;28;20198;-73
2022/11/22 07:24:46;;;;;;;0.10;0.10;;;3.50;99.90;2.20;95145.00;;;;5032864;28;20219;-73
2022/11/22 07:27:16;;;;;;;0.10;0.10;;;3.50;99.90;2.10;95053.00;;;;5033156;28;20261;-72
2022/11/22 07:29:44;;;;;;;0.10;0.10;;;3.50;99.90;1.70;93309.00;;;;5032871;28;20202;-73
2022/11/22 07:32:12;;;;;;;0.10;0.10;;;3.50;99.90;1.80;93112.00;;;;5032877;28;20221;-73
2022/11/22 07:34:40;;;;;;;0.10;0.10;;;3.50;99.90;1.80;92811.00;;;;5033066;28;20218;-73
2022/11/22 07:37:08;;;;;;;0.10;0.10;;;3.50;99.90;1.80;93166.00;;;;5031557;28;20631;-73
2022/11/22 07:39:36;;;;;;;0.10;0.10;;;3.50;99.90;1.80;93106.00;;;;5032650;28;20608;-73
2022/11/22 07:42:04;;;;;;;0.10;0.10;;;3.50;99.90;1.80;92858.00;;;;5032598;28;20241;-73
2022/11/22 07:44:34;;;;;;;0.10;0.10;;;3.60;99.90;1.90;92535.00;;;;5032619;28;20296;-73
2022/11/22 07:47:02;;;;;;;0.10;0.10;;;3.60;99.90;1.90;92796.00;;;;5032625;28;20667;-72
2022/11/22 07:49:30;;;;;;;0.10;0.10;;;3.60;99.90;1.90;92800.00;;;;5032774;28;20441;-72
2022/11/22 07:51:59;;;;;;;0.10;0.10;;;3.60;99.90;1.90;93168.00;;;;5032913;28;20287;-73
2022/11/22 07:54:27;;;;;;;0.10;0.10;;;3.60;99.90;1.90;93684.00;;;;5032608;28;20634;-72
2022/11/22 07:56:55;;;;;;;0.10;0.10;;;3.60;99.90;1.90;93108.00;;;;5033091;28;20604;-73
2022/11/22 07:59:24;;;;;;;0.10;0.10;;;3.60;99.90;2.40;95202.00;;;;5032566;28;20601;-73
2022/11/22 08:01:53;;;;;;;0.10;0.10;;;3.70;99.90;2.00;94414.00;;;;5032978;28;20256;-73
2022/11/22 08:04:22;;;;;;;0.00;0.00;;;3.70;99.90;2.10;94465.00;;;;5032255;28;20227;-73
2022/11/22 08:06:50;;;;;;;0.10;0.10;;;3.70;99.90;2.10;94509.00;;;;5032354;28;20195;-76
2022/11/22 08:09:18;;;;;;;0.10;0.10;;;3.80;99.90;2.00;94422.00;;;;5032201;28;20187;-73
2022/11/22 08:11:46;;;;;;;0.10;0.10;;;3.70;99.90;2.00;94415.00;;;;5032306;28;20628;-72
2022/11/22 08:14:14;;;;;;;0.10;0.10;;;3.70;99.90;2.00;94402.00;;;;5032346;28;20253;-73
2022/11/22 08:16:42;;;;;;;0.00;0.00;;;3.70;99.90;2.10;94533.00;;;;5032219;28;20211;-72
2022/11/22 08:19:16;;;;;;;0.10;0.10;;;3.70;99.90;2.10;94432.00;;;;5031826;28;20190;-73
2022/11/22 08:21:44;;;;;;;0.10;0.10;;;3.80;99.90;2.10;94476.00;;;;5032151;28;20187;-73
2022/11/22 08:24:12;;;;;;;0.10;0.10;;;3.80;99.90;2.10;94466.00;;;;5031885;28;20222;-73
2022/11/22 08:26:40;;;;;;;0.10;0.10;;;3.80;99.90;2.50;95163.00;;;;5032184;28;20191;-73
2022/11/22 08:29:12;;;;;;;0.10;0.10;;;3.80;99.90;2.10;94418.00;;;;5032087;28;20252;-72
2022/11/22 08:31:41;;;;;;;0.08;0.08;;;3.80;99.90;2.20;94656.00;;;;5031948;28;20191;-73
2022/11/22 08:34:12;;;;;;;0.10;0.10;;;3.80;99.90;2.10;94308.00;;;;5031758;28;20226;-73
2022/11/22 08:36:40;;;;;;;0.10;0.10;;;3.80;99.90;2.20;94602.00;;;;5031842;28;20245;-73
2022/11/22 08:39:08;;;;;;;0.10;0.10;;;3.90;99.90;2.60;95237.00;;;;5032289;28;20533;-73
2022/11/22 08:41:36;;;;;;;0.10;0.10;;;3.90;99.90;2.30;94651.00;;;;5032991;28;20198;-72
2022/11/22 08:44:05;;;;;;;0.10;0.10;;;3.90;99.90;2.10;94488.00;;;;5032397;28;20265;-73
2022/11/22 08:46:33;;;;;;;0.10;0.10;;;3.80;99.90;2.20;94360.00;;;;5031695;28;20233;-73
2022/11/22 08:49:02;;;;;;;0.10;0.10;;;3.80;99.90;2.20;94361.00;;;;5031354;28;20605;-73
2022/11/22 08:51:33;;;;;;;0.10;0.10;;;3.90;99.90;2.20;94339.00;;;;5031710;28;20191;-72
2022/11/22 08:54:01;;;;;;;0.10;0.10;;;3.90;99.90;2.10;94313.00;;;;5031465;28;20210;-73
2022/11/22 08:56:29;;;;;;;0.10;0.10;;;3.80;99.90;2.50;95234.00;;;;5031560;28;20245;-73
2022/11/22 08:58:57;;;;;;;0.10;0.10;;;3.80;99.90;2.50;95213.00;;;;5031302;28;20667;-72
2022/11/22 09:01:26;;;;;;;0.10;0.10;;;3.80;99.90;2.20;94612.00;;;;5031470;28;20195;-72
2022/11/22 09:03:54;;;;;;;0.10;0.10;;;3.80;99.90;2.20;94671.00;;;;5031257;28;20210;-72
2022/11/22 09:06:23;;;;;;;0.10;0.10;;;3.90;99.90;2.30;94700.00;;;;5031529;28;20194;-73
2022/11/22 09:09:12;;;;;;;0.10;0.10;;;3.90;99.90;2.30;94709.00;;;;5029864;28;20222;-73
2022/11/22 09:12:00;;;;;;;0.10;0.10;;;3.90;99.90;2.40;94772.00;;;;5031238;28;20218;-72
2022/11/22 09:14:28;;;;;;;0.10;0.10;;;3.90;99.90;2.40;94702.00;;;;5031434;28;20215;-72
2022/11/22 09:16:56;;;;;;;0.10;0.10;;;3.90;99.90;2.40;94647.00;;;;5034961;28;20194;-72
2022/11/22 09:19:24;;;;;;;0.10;0.10;;;4.00;99.90;2.50;94738.00;;;;5033940;28;20249;-72
2022/11/22 09:21:52;;;;;;;0.10;0.10;;;4.10;99.90;2.40;94799.00;;;;5035559;28;20531;-73
2022/11/22 09:24:22;;;;;;;0.10;0.10;;;4.00;99.90;2.40;94792.00;;;;5035399;28;20227;-72
2022/11/22 09:26:50;;;;;;;0.10;0.10;;;4.00;99.90;2.30;94546.00;;;;5035747;28;20187;-72
2022/11/22 09:29:18;;;;;;;0.10;0.10;;;4.00;99.90;2.80;95242.00;;;;5035295;28;20202;-72
2022/11/22 09:31:46;;;;;;;0.10;0.10;;;4.10;99.90;2.50;94833.00;;;;5035464;28;20195;-72
2022/11/22 09:34:14;;;;;;;0.10;0.10;;;4.00;99.90;2.60;94850.00;;;;5034134;28;20563;-75
2022/11/22 09:36:42;;;;;;;0.10;0.10;;;4.10;99.90;2.60;94862.00;;;;5035743;28;20191;-73
2022/11/22 09:39:11;;;;;;;0.10;0.10;;;4.10;99.90;2.70;94849.00;;;;5035208;28;20245;-72
2022/11/22 09:42:18;;;;;;;0.10;0.10;;;4.20;99.90;2.60;94838.00;;;;5036402;28;20207;-72
2022/11/22 09:45:16;;;;;;;0.10;0.10;;;4.10;99.90;2.50;94853.00;;;;5035744;28;20234;-72
2022/11/22 09:48:01;;;;;;;0.10;0.10;;;4.00;99.90;2.50;94863.00;;;;5034671;28;20198;-73
2022/11/22 09:50:49;;;;;;;0.10;0.10;;;4.00;99.90;2.50;94855.00;;;;5035333;28;20253;-72
2022/11/22 09:53:24;;;;;;;0.10;0.10;;;4.00;99.90;2.50;94848.00;;;;5036484;28;20241;-72
2022/11/22 09:55:59;;;;;;;0.10;0.10;;;4.00;99.90;2.80;95291.00;;;;5035559;28;20195;-73
2022/11/22 09:58:35;;;;;;;0.10;0.10;;;4.10;99.90;2.40;94561.00;;;;5034848;28;20249;-72
2022/11/22 10:01:11;;;;;;;0.10;0.10;;;4.10;99.90;2.60;94690.00;;;;5034813;28;20190;-72
2022/11/22 10:03:47;;;;;;;0.10;0.10;;;4.20;99.90;2.60;94676.00;;;;5034693;28;20556;-72
2022/11/22 10:06:25;;;;;;;0.10;0.10;;;4.20;99.90;2.60;94645.00;;;;5034569;28;20218;-72
2022/11/22 10:09:10;;;;;;;0.10;0.10;;;4.20;99.90;2.60;94630.00;;;;5034179;28;20195;-75
2022/11/22 10:11:45;;;;;;;0.10;0.10;;;4.20;99.90;2.70;94760.00;;;;5034430;28;20245;-74
2022/11/22 10:14:40;;;;;;;0.10;0.10;;;4.30;99.90;2.80;94733.00;;;;5034304;28;20272;-74
2022/11/22 10:17:28;;;;;;;0.10;0.10;;;4.40;99.90;2.80;94659.00;;;;5034032;28;20190;-74
2022/11/22 10:20:06;;;;;;;0.10;0.10;;;4.40;99.90;2.90;94677.00;;;;5034194;28;20202;-74
2022/11/22 10:22:35;;;;;;;0.05;0.05;;;4.50;99.90;3.00;94715.00;;;;5034153;28;20628;-74
2022/11/22 10:25:14;;;;;;;0.00;0.00;;;4.60;99.90;3.10;94597.00;;;;5034248;28;20763;-74
2022/11/22 10:27:43;;;;;;;0.15;0.15;;;4.70;99.90;3.10;94603.00;;;;5032730;28;20238;-75
2022/11/22 10:30:18;;;;;;;0.10;0.10;;;4.70;99.90;3.20;94672.00;;;;5034336;28;20195;-75
2022/11/22 10:33:02;;;;;;;0.10;0.10;;;4.70;99.90;3.20;94662.00;;;;5033854;28;20210;-74
2022/11/22 10:36:00;;;;;;;0.10;0.10;;;4.80;99.90;3.20;94607.00;;;;5034091;28;20245;-75
2022/11/22 10:39:03;;;;;;;0.10;0.10;;;4.80;99.90;3.20;94694.00;;;;5033954;28;20195;-75
2022/11/22 10:41:46;;;;;;;0.10;0.10;;;4.80;99.90;3.30;94674.00;;;;5034048;28;20191;-75
2022/11/22 10:44:30;;;;;;;0.10;0.10;;;4.90;99.90;3.40;94690.00;;;;5033697;28;20233;-75
2022/11/22 10:47:13;;;;;;;0.10;0.10;;;4.90;99.90;3.70;95249.00;;;;5033584;28;20249;-75
2022/11/22 10:49:55;;;;;;;0.00;0.00;;;5.00;99.90;3.40;94699.00;;;;5033627;28;20195;-74
2022/11/22 10:52:35;;;;;;;0.10;0.10;;;5.00;99.90;3.50;94726.00;;;;5033778;28;20241;-75
2022/11/22 10:55:21;;;;;;;0.00;0.00;;;5.00;99.90;3.50;94805.00;;;;5034086;28;20241;-75
2022/11/22 10:58:04;;;;;;;0.10;0.10;;;5.00;99.90;3.20;93768.00;;;;5033493;28;20183;-74
2022/11/22 11:00:36;;;;;;;0.10;0.10;;;4.90;99.90;3.20;93643.00;;;;5033878;28;20201;-75
2022/11/22 11:03:27;;;;;;;0.10;0.10;;;4.90;99.90;3.20;93556.00;;;;5033223;28;20706;-75
2022/11/22 11:06:05;;;;;;;0.10;0.10;;;4.90;99.90;3.20;94680.00;;;;5033616;28;20225;-75
2022/11/22 11:08:57;;;;;;;0.10;0.10;;;4.80;99.90;3.30;94699.00;;;;5032547;28;20192;-75
2022/11/22 11:11:47;;;;;;;0.10;0.10;;;4.80;99.90;3.20;94682.00;;;;5032215;28;20280;-74
2022/11/22 11:14:29;;;;;;;0.10;0.10;;;4.80;99.90;3.30;94725.00;;;;5033073;28;20225;-74
2022/11/22 11:17:00;;;;;;;0.10;0.10;;;4.80;99.90;3.20;94732.00;;;;5033266;28;20674;-75
2022/11/22 11:19:37;;;;;;;0.10;0.10;;;4.70;99.90;3.20;94718.00;;;;5032796;28;20659;-74
2022/11/22 11:22:17;;;;;;;0.10;0.10;;;4.70;99.90;3.20;94738.00;;;;5033512;28;20198;-74
2022/11/22 11:25:29;;;;;;;0.10;0.10;;;4.80;99.90;3.20;94605.00;;;;5032948;28;20273;-74
2022/11/22 11:28:02;;;;;;;0.10;0.10;;;4.70;99.90;3.10;94635.00;;;;5029986;28;20207;-74
2022/11/22 11:30:42;;;;;;;0.10;0.10;;;4.70;99.90;3.10;94671.00;;;;5033621;28;20206;-74
2022/11/22 11:33:25;;;;;;;0.10;0.10;;;4.70;99.90;3.10;94670.00;;;;5032995;28;20397;-74
2022/11/22 11:35:57;;;;;;;0.10;0.10;;;4.70;99.90;3.10;92925.00;;;;5033143;28;20202;-74
2022/11/22 11:38:33;;;;;;;0.10;0.10;;;4.70;99.90;3.20;92924.00;;;;5032196;28;20187;-74
2022/11/22 11:41:24;;;;;;;0.10;0.10;;;4.80;99.90;3.10;92858.00;;;;5032860;28;20205;-74
2022/11/22 11:43:54;;;;;;;0.10;0.10;;;4.70;99.90;3.20;92901.00;;;;5032768;28;20218;-74
2022/11/22 11:46:25;;;;;;;0.10;0.10;;;4.70;99.90;3.20;93003.00;;;;5032684;28;20210;-75
2022/11/22 11:48:55;;;;;;;0.10;0.10;;;4.80;99.90;3.10;93346.00;;;;5032544;28;20191;-73